Time;durP1;ratioP1;P1;durP2;ratioP2;P2;SDS_P1;SDS_P2;PMS_P1;PMS_P2;Temp;Humidity;BMP_temperature;BMP_pressure;BME280_temperature;BME280_humidity;BME280_pressure;Samples;Min_cycle;Max_cycle;Signal;HPM_P1;HPM_P2
2021/03/26 00:01:39;;;;;;;41.10;22.87;;;7.80;99.90;;;;;;4069626;29;20255;-92
2021/03/26 00:03:41;;;;;;;38.43;22.77;;;7.70;99.90;;;;;;4069536;29;20256;-93
2021/03/26 00:05:44;;;;;;;37.37;21.83;;;7.60;99.90;;;;;;4069591;29;20176;-93
2021/03/26 00:07:45;;;;;;;44.67;23.23;;;7.60;99.90;;;;;;4069765;29;20204;-93
2021/03/26 00:09:46;;;;;;;42.57;23.20;;;7.50;99.90;;;;;;4069401;29;20196;-92
2021/03/26 00:11:49;;;;;;;40.37;23.40;;;7.60;99.90;;;;;;4069722;29;20668;-93
2021/03/26 00:13:50;;;;;;;35.70;23.73;;;7.60;99.90;;;;;;4069507;29;20283;-92
2021/03/26 00:15:51;;;;;;;39.90;23.47;;;7.60;99.90;;;;;;4085159;29;20186;-92
2021/03/26 00:17:52;;;;;;;38.23;24.17;;;7.70;99.90;;;;;;4085162;29;20207;-93
2021/03/26 00:19:53;;;;;;;38.80;24.93;;;7.80;99.90;;;;;;4084972;29;20191;-92
2021/03/26 00:21:54;;;;;;;38.53;22.53;;;7.90;99.90;;;;;;4069410;29;20224;-92
2021/03/26 00:23:55;;;;;;;42.43;24.10;;;7.80;99.90;;;;;;4085023;29;20655;-92
2021/03/26 00:25:56;;;;;;;42.70;24.13;;;7.80;99.90;;;;;;4069131;29;20180;-94
2021/03/26 00:27:57;;;;;;;38.43;23.97;;;7.80;99.90;;;;;;4069204;29;20731;-92
2021/03/26 00:29:57;;;;;;;42.60;22.57;;;7.80;99.90;;;;;;4068996;29;20196;-92
2021/03/26 00:31:58;;;;;;;48.70;23.80;;;7.90;99.90;;;;;;4068911;29;20227;-92
2021/03/26 00:33:59;;;;;;;37.70;22.57;;;7.80;99.90;;;;;;4069020;29;20290;-92
2021/03/26 00:36:00;;;;;;;38.67;23.60;;;7.80;99.90;;;;;;4068884;29;20176;-92
2021/03/26 00:38:01;;;;;;;38.33;22.90;;;7.70;99.90;;;;;;4084827;29;20186;-93
2021/03/26 00:40:07;;;;;;;37.57;22.80;;;7.60;99.90;;;;;;4068819;29;20196;-92
2021/03/26 00:42:08;;;;;;;43.27;24.00;;;7.50;99.90;;;;;;4069349;29;20228;-93
2021/03/26 00:44:09;;;;;;;40.53;23.77;;;7.50;99.90;;;;;;4085017;29;20171;-92
2021/03/26 00:46:10;;;;;;;43.20;24.00;;;7.50;99.90;;;;;;4083700;29;20179;-93
2021/03/26 00:48:12;;;;;;;42.73;22.10;;;7.50;99.90;;;;;;4085046;29;20186;-93
2021/03/26 00:50:24;;;;;;;41.40;24.43;;;7.50;99.90;;;;;;4069214;29;20200;-94
2021/03/26 00:52:25;;;;;;;42.50;23.03;;;7.50;99.90;;;;;;4068925;29;20196;-92
2021/03/26 00:54:26;;;;;;;35.67;22.23;;;7.40;99.90;;;;;;4069030;29;20227;-92
2021/03/26 00:56:27;;;;;;;42.17;23.83;;;7.40;99.90;;;;;;4084482;29;20255;-93
2021/03/26 00:58:28;;;;;;;39.20;22.40;;;7.40;99.90;;;;;;4084646;29;20186;-93
2021/03/26 01:00:31;;;;;;;41.87;23.40;;;7.50;99.90;;;;;;4084535;29;20286;-93
2021/03/26 01:02:32;;;;;;;41.90;23.60;;;7.60;99.90;;;;;;4084415;29;20235;-94
2021/03/26 01:04:33;;;;;;;37.83;23.83;;;7.50;99.90;;;;;;4068764;29;20196;-94
2021/03/26 01:06:35;;;;;;;37.60;22.93;;;7.70;99.90;;;;;;4084405;29;20168;-93
2021/03/26 01:08:36;;;;;;;41.43;22.90;;;7.60;99.90;;;;;;4084331;29;20187;-93
2021/03/26 01:10:49;;;;;;;38.23;22.67;;;7.60;99.90;;;;;;4084036;29;20282;-93
2021/03/26 01:12:50;;;;;;;39.97;22.27;;;7.60;99.90;;;;;;4068581;29;20252;-92
2021/03/26 01:14:51;;;;;;;41.07;23.20;;;7.80;99.90;;;;;;4068692;29;20188;-92
2021/03/26 01:16:52;;;;;;;42.57;23.47;;;7.70;99.90;;;;;;4068699;29;20267;-92
2021/03/26 01:18:53;;;;;;;44.93;23.07;;;7.60;99.90;;;;;;4068475;29;20180;-93
2021/03/26 01:20:56;;;;;;;41.53;23.23;;;7.60;99.90;;;;;;4068336;29;20537;-92
2021/03/26 01:22:58;;;;;;;43.30;24.00;;;7.70;99.90;;;;;;4084036;29;20646;-92
2021/03/26 01:24:59;;;;;;;43.90;22.23;;;7.70;99.90;;;;;;4068301;29;20170;-92
2021/03/26 01:27:04;;;;;;;41.53;23.17;;;7.90;99.90;;;;;;4068745;29;20180;-92
2021/03/26 01:29:12;;;;;;;41.17;22.87;;;7.80;99.90;;;;;;4069144;29;20176;-94
2021/03/26 01:31:29;;;;;;;39.77;22.77;;;7.90;99.90;;;;;;4100075;29;20582;-92
2021/03/26 01:35:31;;;;;;;48.13;22.60;;;7.90;99.90;;;;;;4068038;29;20185;-93
2021/03/26 01:37:33;;;;;;;37.20;21.73;;;7.80;99.90;;;;;;4083992;29;20738;-93
2021/03/26 01:39:34;;;;;;;43.87;23.83;;;7.60;99.90;;;;;;4084051;29;20248;-92
2021/03/26 01:41:39;;;;;;;42.03;24.10;;;7.50;99.90;;;;;;4068021;29;20220;-93
2021/03/26 01:43:47;;;;;;;39.43;22.90;;;7.50;99.90;;;;;;4099827;29;20174;-92
2021/03/26 01:45:50;;;;;;;41.60;22.87;;;7.40;99.90;;;;;;4068206;29;20448;-93
2021/03/26 01:47:54;;;;;;;42.43;24.03;;;7.50;99.90;;;;;;4067913;29;20672;-93
2021/03/26 01:49:56;;;;;;;38.17;21.80;;;7.50;99.90;;;;;;4067744;29;20201;-92
2021/03/26 01:51:58;;;;;;;42.60;22.83;;;7.50;99.90;;;;;;4067900;29;20227;-92
2021/03/26 01:54:00;;;;;;;44.17;23.20;;;7.50;99.90;;;;;;4084278;29;20172;-93
2021/03/26 01:56:04;;;;;;;42.33;22.00;;;7.40;99.90;;;;;;4068708;29;20620;-93
2021/03/26 01:58:16;;;;;;;43.03;23.03;;;7.40;99.90;;;;;;4068845;29;20175;-92
2021/03/26 02:00:35;;;;;;;41.53;22.17;;;7.40;99.90;;;;;;4068022;29;20226;-93
2021/03/26 02:02:37;;;;;;;41.30;22.90;;;7.40;99.90;;;;;;4068123;29;20179;-92
2021/03/26 02:04:56;;;;;;;39.07;22.37;;;7.50;99.90;;;;;;4070271;29;20172;-93
2021/03/26 02:07:14;;;;;;;39.93;22.07;;;7.60;99.90;;;;;;4099515;29;20647;-92
2021/03/26 02:09:22;;;;;;;40.50;22.07;;;7.60;99.90;;;;;;4099335;29;20174;-92
2021/03/26 02:11:52;;;;;;;43.60;22.97;;;7.40;99.90;;;;;;4099390;29;20207;-93
2021/03/26 02:13:55;;;;;;;45.20;23.30;;;7.60;99.90;;;;;;4099512;29;20265;-93
2021/03/26 02:16:05;;;;;;;47.83;22.10;;;7.70;99.90;;;;;;4083310;29;20175;-93
2021/03/26 02:18:09;;;;;;;40.47;22.83;;;7.60;99.90;;;;;;4067718;29;20177;-91
2021/03/26 02:20:34;;;;;;;39.93;21.10;;;7.70;99.90;;;;;;4083333;29;20195;-91
2021/03/26 02:22:38;;;;;;;37.53;20.57;;;7.60;99.90;;;;;;4068003;29;20714;-91
2021/03/26 02:24:40;;;;;;;44.70;22.57;;;7.60;99.90;;;;;;4067559;29;20186;-92
2021/03/26 02:26:49;;;;;;;38.60;22.00;;;7.60;99.90;;;;;;4067555;29;20180;-93
2021/03/26 02:28:51;;;;;;;45.93;22.43;;;7.70;99.90;;;;;;4083189;29;20176;-92
2021/03/26 02:31:19;;;;;;;36.93;21.60;;;7.60;99.90;;;;;;4083628;29;20226;-92
2021/03/26 02:33:21;;;;;;;36.03;21.23;;;7.60;99.90;;;;;;4099126;29;20634;-92
2021/03/26 02:35:38;;;;;;;45.50;22.17;;;7.60;99.90;;;;;;4099125;29;20602;-93
2021/03/26 02:38:04;;;;;;;43.63;21.23;;;7.60;99.90;;;;;;4099442;29;20201;-93
2021/03/26 02:40:17;;;;;;;40.80;20.90;;;7.60;99.90;;;;;;4098634;28;20194;-92
2021/03/26 02:42:26;;;;;;;40.37;21.27;;;7.50;99.90;;;;;;4098992;29;20198;-92
2021/03/26 02:44:56;;;;;;;40.40;21.37;;;7.50;99.90;;;;;;4099057;29;20238;-93
2021/03/26 02:47:13;;;;;;;42.33;21.17;;;7.60;99.90;;;;;;4082994;29;20440;-93
2021/03/26 02:49:31;;;;;;;34.77;20.40;;;7.60;99.90;;;;;;4067523;29;20188;-91
2021/03/26 02:51:42;;;;;;;37.30;20.10;;;7.50;99.90;;;;;;4067417;29;20223;-91
2021/03/26 02:53:56;;;;;;;36.80;20.50;;;7.40;99.90;;;;;;4082976;29;20179;-92
2021/03/26 02:56:12;;;;;;;37.83;20.90;;;7.40;99.90;;;;;;4067284;29;20180;-92
2021/03/26 02:58:21;;;;;;;34.70;19.33;;;7.50;99.90;;;;;;4067684;29;20526;-91
2021/03/26 03:00:43;;;;;;;36.07;20.67;;;7.60;99.90;;;;;;4068394;29;20683;-92
2021/03/26 03:02:47;;;;;;;33.77;19.00;;;7.50;99.90;;;;;;4067301;29;20176;-92
2021/03/26 03:04:55;;;;;;;33.20;19.50;;;7.40;99.90;;;;;;4082935;29;20686;-92
2021/03/26 03:07:03;;;;;;;37.37;19.57;;;7.20;99.90;;;;;;4067873;29;20647;-92
2021/03/26 03:09:37;;;;;;;36.90;20.13;;;7.20;99.90;;;;;;4076241;29;20190;-92
2021/03/26 03:11:43;;;;;;;35.33;18.97;;;7.20;99.90;;;;;;4070719;29;20223;-92
2021/03/26 03:13:54;;;;;;;36.97;20.03;;;7.30;99.90;;;;;;4071112;29;20184;-92
2021/03/26 03:16:06;;;;;;;37.80;22.13;;;7.20;99.90;;;;;;4070658;29;20212;-92
2021/03/26 03:18:28;;;;;;;37.40;20.23;;;7.20;99.90;;;;;;4070966;29;20211;-93
2021/03/26 03:20:44;;;;;;;36.67;19.57;;;7.30;99.90;;;;;;4070457;29;20215;-93
2021/03/26 03:23:10;;;;;;;34.90;20.17;;;7.40;99.90;;;;;;4070453;29;20655;-92
2021/03/26 03:25:31;;;;;;;40.20;20.53;;;7.30;99.90;;;;;;4088741;29;20675;-93
2021/03/26 03:27:45;;;;;;;37.90;20.67;;;7.40;99.90;;;;;;4102035;29;20176;-92
2021/03/26 03:30:13;;;;;;;42.37;21.33;;;7.40;99.90;;;;;;4101614;29;20281;-93
2021/03/26 03:32:54;;;;;;;38.87;21.50;;;7.40;99.90;;;;;;4101555;29;20333;-92
2021/03/26 03:35:11;;;;;;;38.77;21.07;;;7.20;99.90;;;;;;4101543;29;20249;-94
2021/03/26 03:37:27;;;;;;;42.27;21.13;;;7.20;99.90;;;;;;4085586;29;20178;-93
2021/03/26 03:39:35;;;;;;;39.53;21.27;;;7.40;99.90;;;;;;4085547;29;20284;-93
2021/03/26 03:41:54;;;;;;;44.20;20.80;;;7.40;99.90;;;;;;4070579;29;20258;-92
2021/03/26 03:44:11;;;;;;;39.43;21.83;;;7.20;99.90;;;;;;4069850;29;20223;-93
2021/03/26 03:46:26;;;;;;;38.97;21.20;;;7.00;99.90;;;;;;4069843;29;20184;-91
2021/03/26 03:49:29;;;;;;;40.73;21.13;;;7.10;99.90;;;;;;4070654;29;20218;-93
2021/03/26 03:51:41;;;;;;;39.60;20.47;;;7.20;99.90;;;;;;4101239;29;20214;-92
2021/03/26 03:53:50;;;;;;;43.17;23.27;;;7.10;99.90;;;;;;4101441;29;20528;-93
2021/03/26 03:56:15;;;;;;;42.83;20.87;;;7.10;99.90;;;;;;4101639;29;20183;-92
2021/03/26 03:58:40;;;;;;;40.33;21.73;;;7.20;99.90;;;;;;4101636;29;20428;-93
2021/03/26 04:00:51;;;;;;;47.53;22.90;;;7.30;99.90;;;;;;4101487;29;20199;-94
2021/03/26 04:03:01;;;;;;;43.33;22.60;;;7.40;99.90;;;;;;4085666;29;20175;-91
2021/03/26 04:05:30;;;;;;;46.83;23.67;;;7.40;99.90;;;;;;4069962;29;20517;-93
2021/03/26 04:08:13;;;;;;;46.00;21.73;;;7.30;99.90;;;;;;4052839;29;20187;-93
2021/03/26 04:10:16;;;;;;;44.47;22.50;;;7.10;99.90;;;;;;4053008;29;20212;-92
2021/03/26 04:12:27;;;;;;;48.57;22.27;;;7.00;99.90;;;;;;4085186;29;20626;-92
2021/03/26 04:14:57;;;;;;;41.97;22.73;;;7.00;99.90;;;;;;4100953;29;20269;-92
2021/03/26 04:17:06;;;;;;;42.97;22.93;;;7.00;99.90;;;;;;4100864;29;20183;-91
2021/03/26 04:19:18;;;;;;;47.20;24.17;;;7.10;99.90;;;;;;4085096;29;20647;-92
2021/03/26 04:21:30;;;;;;;45.27;22.33;;;7.20;99.90;;;;;;4084671;29;20193;-93
2021/03/26 04:24:08;;;;;;;43.90;21.97;;;7.10;99.90;;;;;;4076626;29;20178;-92
2021/03/26 04:27:06;;;;;;;48.77;22.40;;;7.10;99.90;;;;;;4101177;29;20708;-92
2021/03/26 04:29:50;;;;;;;52.30;24.37;;;7.10;99.90;;;;;;4087523;29;20287;-93
2021/03/26 04:31:57;;;;;;;42.23;22.00;;;7.10;99.90;;;;;;4100957;29;20325;-92
2021/03/26 04:33:59;;;;;;;45.33;23.30;;;7.00;99.90;;;;;;4100842;29;20254;-92
2021/03/26 04:36:03;;;;;;;46.80;24.93;;;7.10;99.90;;;;;;4085055;29;20659;-92
2021/03/26 04:38:31;;;;;;;45.50;22.90;;;7.10;99.90;;;;;;4071613;29;20181;-92
2021/03/26 04:40:36;;;;;;;44.77;23.70;;;7.10;99.90;;;;;;4068763;29;20211;-92
2021/03/26 04:43:01;;;;;;;49.37;22.53;;;7.00;99.90;;;;;;4069230;29;20188;-92
2021/03/26 04:45:23;;;;;;;43.97;23.70;;;6.90;99.90;;;;;;4069358;29;20255;-92
2021/03/26 04:47:49;;;;;;;40.43;23.10;;;6.70;99.90;;;;;;4084880;29;20176;-93
2021/03/26 04:50:27;;;;;;;45.10;23.20;;;6.60;99.90;;;;;;4084987;29;20206;-93
2021/03/26 04:52:41;;;;;;;48.70;24.23;;;6.70;99.90;;;;;;4100652;29;20724;-92
2021/03/26 04:54:48;;;;;;;45.43;22.90;;;6.80;99.90;;;;;;4100513;29;20253;-93
2021/03/26 04:57:29;;;;;;;50.93;23.63;;;6.90;99.90;;;;;;4098468;29;20230;-92
2021/03/26 04:59:37;;;;;;;50.43;22.47;;;7.00;99.90;;;;;;4100104;29;20175;-92
2021/03/26 05:01:50;;;;;;;48.07;24.07;;;7.10;99.90;;;;;;4100454;29;20179;-92
2021/03/26 05:04:17;;;;;;;46.93;23.13;;;7.20;99.90;;;;;;4100331;29;20739;-92
2021/03/26 05:06:22;;;;;;;43.73;22.07;;;7.10;99.90;;;;;;4100125;29;20580;-92
2021/03/26 05:08:26;;;;;;;44.60;21.90;;;7.20;99.90;;;;;;4100381;29;20636;-91
2021/03/26 05:10:49;;;;;;;47.20;22.97;;;7.10;99.90;;;;;;4100249;29;20207;-93
2021/03/26 05:13:00;;;;;;;43.43;23.87;;;7.00;99.90;;;;;;4100312;29;20680;-93
2021/03/26 05:15:35;;;;;;;41.63;22.20;;;6.90;99.90;;;;;;4100445;29;20178;-92
2021/03/26 05:17:51;;;;;;;48.10;22.23;;;6.90;99.90;;;;;;4081459;29;20199;-92
2021/03/26 05:20:04;;;;;;;41.93;21.97;;;6.80;99.90;;;;;;4100106;29;20190;-93
2021/03/26 05:22:41;;;;;;;42.27;22.47;;;6.70;99.90;;;;;;4070427;29;20175;-93
2021/03/26 05:25:21;;;;;;;42.37;22.40;;;6.80;99.90;;;;;;4072157;29;20200;-94
2021/03/26 05:27:44;;;;;;;40.67;21.57;;;6.80;99.90;;;;;;4086738;29;20182;-93
2021/03/26 05:29:47;;;;;;;40.07;21.67;;;6.80;99.90;;;;;;4099834;29;20230;-93
2021/03/26 05:32:01;;;;;;;47.90;23.07;;;6.80;99.90;;;;;;4083761;29;20211;-93
2021/03/26 05:34:35;;;;;;;44.93;21.13;;;6.80;99.90;;;;;;4086519;29;20251;-93
2021/03/26 05:36:45;;;;;;;45.60;22.40;;;6.80;99.90;;;;;;4099769;29;20175;-92
2021/03/26 05:39:30;;;;;;;45.70;22.23;;;6.80;99.90;;;;;;4101463;29;20720;-93
2021/03/26 05:42:16;;;;;;;37.97;21.20;;;6.70;99.90;;;;;;4101042;29;20309;-92
2021/03/26 05:45:03;;;;;;;40.60;20.50;;;6.60;99.90;;;;;;4100188;29;20256;-92
2021/03/26 05:47:24;;;;;;;43.30;21.97;;;6.50;99.90;;;;;;4099864;29;20186;-92
2021/03/26 05:49:58;;;;;;;44.97;21.57;;;6.60;99.90;;;;;;4083524;29;20180;-94
2021/03/26 05:52:26;;;;;;;41.03;21.20;;;6.70;99.90;;;;;;4065321;29;20225;-93
2021/03/26 05:54:51;;;;;;;41.23;22.37;;;6.70;99.90;;;;;;4083755;29;20207;-92
2021/03/26 05:57:11;;;;;;;38.13;20.67;;;6.70;99.90;;;;;;4083776;29;20176;-93
2021/03/26 05:59:31;;;;;;;41.27;21.70;;;6.60;99.90;;;;;;4068131;29;20177;-92
2021/03/26 06:01:39;;;;;;;46.50;22.07;;;6.60;99.90;;;;;;4068076;29;20267;-93
2021/03/26 06:04:41;;;;;;;55.43;32.10;;;6.80;99.90;;;;;;4058199;29;20186;-92
2021/03/26 06:07:30;;;;;;;41.97;20.33;;;6.90;99.90;;;;;;4079916;29;20183;-92
2021/03/26 06:10:00;;;;;;;40.97;21.20;;;7.10;99.90;;;;;;4099684;29;20209;-92
2021/03/26 06:12:45;;;;;;;38.53;20.07;;;7.20;99.90;;;;;;4099627;29;20304;-93
2021/03/26 06:15:35;;;;;;;38.13;19.07;;;7.50;99.90;;;;;;4099833;29;20182;-93
2021/03/26 06:18:36;;;;;;;40.90;19.90;;;7.40;99.90;;;;;;4099548;29;20198;-93
2021/03/26 06:20:58;;;;;;;37.97;20.07;;;7.30;99.90;;;;;;4099632;29;20570;-93
2021/03/26 06:23:31;;;;;;;40.67;19.00;;;7.30;99.90;;;;;;4099289;29;20212;-92
2021/03/26 06:25:58;;;;;;;41.90;18.93;;;7.40;99.90;;;;;;4083323;29;20559;-94
2021/03/26 06:28:18;;;;;;;39.53;19.93;;;7.40;99.90;;;;;;4067543;29;20573;-92
2021/03/26 06:30:32;;;;;;;34.43;18.23;;;7.50;99.90;;;;;;4067611;29;20208;-92
2021/03/26 06:33:20;;;;;;;37.20;18.20;;;7.70;99.90;;;;;;4086192;29;20206;-92
2021/03/26 06:35:40;;;;;;;33.33;18.00;;;7.80;99.90;;;;;;4099144;29;20175;-94
2021/03/26 06:37:43;;;;;;;39.77;18.43;;;7.90;99.90;;;;;;4099213;29;20178;-93
2021/03/26 06:40:03;;;;;;;34.50;17.93;;;8.10;99.90;;;;;;4099374;29;20789;-92
2021/03/26 06:42:29;;;;;;;32.00;17.20;;;8.00;99.90;;;;;;4099089;29;20195;-92
2021/03/26 06:44:42;;;;;;;31.37;16.07;;;8.20;99.90;;;;;;4102042;28;20198;-92
2021/03/26 06:46:57;;;;;;;36.50;17.40;;;7.90;99.90;;;;;;4086636;29;20254;-92
2021/03/26 06:49:12;;;;;;;33.90;18.40;;;8.20;99.90;;;;;;4086486;29;20182;-93
2021/03/26 06:51:12;;;;;;;36.70;17.70;;;8.40;99.90;;;;;;4070325;29;20208;-92
2021/03/26 06:53:25;;;;;;;32.37;17.20;;;8.40;99.90;;;;;;4070719;29;20258;-92
2021/03/26 06:55:56;;;;;;;35.10;17.40;;;8.60;99.90;;;;;;4070681;29;20552;-91
2021/03/26 06:58:18;;;;;;;30.63;16.23;;;8.70;99.90;;;;;;4070662;29;20186;-92
2021/03/26 07:00:31;;;;;;;38.97;17.77;;;8.80;99.90;;;;;;4070416;29;20208;-91
2021/03/26 07:02:40;;;;;;;37.20;17.50;;;8.70;99.90;;;;;;4070534;29;20187;-91
2021/03/26 07:05:13;;;;;;;38.50;18.03;;;8.90;99.90;;;;;;4070601;29;20180;-92
2021/03/26 07:07:41;;;;;;;26.27;13.77;;;9.00;99.90;;;;;;4070715;29;20247;-92
2021/03/26 07:09:50;;;;;;;33.10;15.90;;;8.80;99.90;;;;;;4086235;29;20184;-93
2021/03/26 07:12:13;;;;;;;24.63;14.77;;;8.90;99.90;;;;;;4070552;29;20227;-93
2021/03/26 07:14:29;;;;;;;32.80;15.40;;;8.70;99.90;;;;;;4070763;29;20559;-92
2021/03/26 07:17:07;;;;;;;27.27;15.20;;;8.80;99.90;;;;;;4070688;29;20176;-92
2021/03/26 07:19:46;;;;;;;28.17;15.63;;;8.70;99.90;;;;;;4071194;29;20215;-92
2021/03/26 07:22:00;;;;;;;29.83;15.27;;;8.50;99.90;;;;;;4054837;29;20566;-92
2021/03/26 07:24:19;;;;;;;42.70;16.10;;;8.50;99.90;;;;;;4102157;29;20209;-93
2021/03/26 07:26:51;;;;;;;33.83;15.67;;;8.50;99.90;;;;;;4086317;29;20251;-91
2021/03/26 07:29:03;;;;;;;27.90;12.33;;;8.50;99.90;;;;;;4086591;29;20293;-91
2021/03/26 07:31:44;;;;;;;35.67;15.63;;;8.50;99.90;;;;;;4070888;29;20307;-92
2021/03/26 07:34:13;;;;;;;31.80;14.90;;;8.60;99.90;;;;;;4023150;29;20716;-92
2021/03/26 07:36:33;;;;;;;28.90;15.10;;;8.80;99.90;;;;;;4061304;29;20192;-92
2021/03/26 07:38:59;;;;;;;31.40;15.97;;;9.00;99.90;;;;;;4070240;29;20212;-93
2021/03/26 07:41:09;;;;;;;28.07;15.30;;;9.10;99.90;;;;;;4069922;29;20497;-93
2021/03/26 07:43:41;;;;;;;29.17;14.70;;;8.90;99.90;;;;;;4086051;29;20603;-92
2021/03/26 07:46:12;;;;;;;27.50;14.83;;;8.80;99.90;;;;;;4070658;29;20173;-92
2021/03/26 07:48:36;;;;;;;31.43;14.63;;;9.00;99.90;;;;;;4070945;29;20221;-92
2021/03/26 07:51:00;;;;;;;31.00;13.90;;;9.00;99.90;;;;;;4069968;29;20239;-92
2021/03/26 07:53:03;;;;;;;28.30;13.90;;;9.10;99.90;;;;;;4070215;29;20275;-92
2021/03/26 07:55:39;;;;;;;31.17;13.00;;;9.20;99.90;;;;;;4069384;29;20637;-92
2021/03/26 07:58:17;;;;;;;27.30;13.83;;;9.40;99.90;;;;;;4070322;29;20203;-92
2021/03/26 08:00:42;;;;;;;27.10;13.60;;;9.50;99.90;;;;;;4087277;29;20254;-92
2021/03/26 08:03:39;;;;;;;28.40;13.63;;;9.40;99.90;;;;;;4057694;29;20638;-92
2021/03/26 08:05:43;;;;;;;30.97;13.13;;;9.40;99.90;;;;;;4055644;29;20188;-93
2021/03/26 08:08:13;;;;;;;25.60;13.07;;;9.40;99.90;;;;;;4055119;29;20200;-91
2021/03/26 08:10:21;;;;;;;26.00;12.93;;;9.50;99.90;;;;;;4065425;29;20211;-90
2021/03/26 08:12:34;;;;;;;24.13;11.90;;;9.60;99.90;;;;;;4085191;29;20218;-91
2021/03/26 08:14:37;;;;;;;25.17;12.13;;;9.70;99.90;;;;;;4069717;29;20191;-92
2021/03/26 08:16:59;;;;;;;28.27;12.33;;;9.70;99.90;;;;;;4069898;29;20275;-91
2021/03/26 08:19:30;;;;;;;24.60;11.60;;;9.60;99.90;;;;;;4054146;29;20253;-92
2021/03/26 08:21:48;;;;;;;21.10;11.67;;;9.70;99.90;;;;;;4054049;29;20272;-91
2021/03/26 08:24:23;;;;;;;25.13;11.70;;;9.70;99.90;;;;;;4054116;29;20177;-91
2021/03/26 08:26:44;;;;;;;23.87;11.03;;;9.80;99.90;;;;;;4053907;29;20248;-92
2021/03/26 08:29:24;;;;;;;18.90;10.30;;;9.80;99.90;;;;;;4053763;29;20193;-91
2021/03/26 08:31:55;;;;;;;17.60;10.67;;;9.90;99.90;;;;;;4054258;29;20223;-92
2021/03/26 08:34:17;;;;;;;24.80;10.23;;;10.00;99.90;;;;;;4075986;29;20168;-91
2021/03/26 08:36:54;;;;;;;17.50;10.20;;;10.20;99.90;;;;;;4054679;29;20177;-91
2021/03/26 08:39:22;;;;;;;21.97;9.73;;;10.40;99.90;;;;;;4075904;29;20288;-91
2021/03/26 08:41:26;;;;;;;18.07;9.63;;;10.40;99.90;;;;;;4080918;29;20775;-92
2021/03/26 08:43:32;;;;;;;15.80;8.87;;;10.70;99.90;;;;;;4092396;29;20187;-92
2021/03/26 08:45:40;;;;;;;16.77;9.47;;;10.50;99.90;;;;;;4076685;29;20196;-91
2021/03/26 08:48:25;;;;;;;18.97;9.00;;;10.60;99.90;;;;;;4093273;29;20195;-92
2021/03/26 08:51:19;;;;;;;21.13;9.73;;;10.80;99.90;;;;;;4093565;29;20199;-92
2021/03/26 08:53:54;;;;;;;15.70;8.80;;;10.70;99.90;;;;;;4093705;29;20179;-91
2021/03/26 08:56:22;;;;;;;19.43;8.40;;;10.60;99.90;;;;;;4069121;29;20183;-92
2021/03/26 08:58:43;;;;;;;20.77;9.23;;;10.50;99.90;;;;;;4069853;29;20176;-92
2021/03/26 09:01:30;;;;;;;34.50;8.90;;;10.60;99.90;;;;;;4069710;29;20636;-92
2021/03/26 09:03:39;;;;;;;17.53;8.37;;;10.70;99.90;;;;;;4085283;29;20248;-92
2021/03/26 09:06:16;;;;;;;20.60;9.17;;;10.50;99.90;;;;;;4070449;29;20195;-92
2021/03/26 09:08:33;;;;;;;16.10;8.67;;;10.80;99.90;;;;;;4065394;29;20187;-94
2021/03/26 09:11:00;;;;;;;19.37;9.40;;;11.10;99.90;;;;;;4070664;29;20204;-92
2021/03/26 09:13:19;;;;;;;21.87;10.13;;;11.30;99.90;;;;;;4085594;29;20207;-91
2021/03/26 09:15:34;;;;;;;16.37;7.73;;;11.60;99.90;;;;;;4071222;29;20552;-91
2021/03/26 09:17:49;;;;;;;18.37;7.70;;;11.30;99.90;;;;;;4070612;29;20629;-92
2021/03/26 09:19:50;;;;;;;18.77;9.53;;;11.20;99.90;;;;;;4069984;29;20204;-92
2021/03/26 09:22:25;;;;;;;15.87;8.90;;;11.30;99.90;;;;;;4070093;29;20180;-91
2021/03/26 09:24:40;;;;;;;17.50;8.93;;;11.30;99.90;;;;;;4041389;29;20183;-92
2021/03/26 09:26:56;;;;;;;19.70;9.10;;;11.40;99.90;;;;;;4085592;29;20663;-92
2021/03/26 09:29:03;;;;;;;15.90;8.40;;;11.70;99.90;;;;;;4068889;29;20184;-91
2021/03/26 09:31:33;;;;;;;16.33;8.57;;;11.70;99.90;;;;;;4085063;29;20301;-92
2021/03/26 09:33:37;;;;;;;20.40;7.90;;;11.80;99.90;;;;;;4069266;29;20240;-93
2021/03/26 09:35:38;;;;;;;16.63;6.90;;;11.80;99.90;;;;;;4069134;29;20176;-92
2021/03/26 09:37:51;;;;;;;14.97;6.87;;;11.80;99.90;;;;;;4069514;29;20187;-92
2021/03/26 09:39:58;;;;;;;14.73;6.53;;;12.10;99.90;;;;;;4068927;29;20192;-91
2021/03/26 09:42:13;;;;;;;13.53;5.60;;;12.20;99.90;;;;;;4069915;29;20238;-93
2021/03/26 09:44:56;;;;;;;8.87;5.00;;;12.60;99.90;;;;;;4069194;29;20184;-92
2021/03/26 09:47:05;;;;;;;12.30;4.97;;;13.10;99.90;;;;;;4062230;29;20247;-92
2021/03/26 09:49:23;;;;;;;12.30;5.03;;;13.20;99.90;;;;;;4069324;29;20688;-92
2021/03/26 09:51:44;;;;;;;9.82;3.90;;;13.20;99.90;;;;;;4100517;29;20238;-93
2021/03/26 09:53:46;;;;;;;9.88;4.13;;;13.60;99.90;;;;;;4084495;29;20184;-92
2021/03/26 09:55:47;;;;;;;8.82;3.65;;;13.80;99.90;;;;;;4068538;29;20176;-93
2021/03/26 09:58:18;;;;;;;14.55;4.47;;;13.60;99.90;;;;;;4068676;29;20248;-92
2021/03/26 10:00:34;;;;;;;13.65;4.05;;;14.00;99.90;;;;;;4068872;29;20295;-91
2021/03/26 10:03:00;;;;;;;12.63;2.88;;;13.80;99.90;;;;;;4069242;29;20180;-91
2021/03/26 10:05:28;;;;;;;7.30;3.28;;;14.00;99.90;;;;;;4068471;29;20255;-92
2021/03/26 10:08:05;;;;;;;9.25;3.72;;;13.70;99.90;;;;;;4069804;29;20187;-91
2021/03/26 10:12:38;;;;;;;11.20;3.17;;;13.70;99.90;;;;;;4102399;29;20226;-92
2021/03/26 10:15:00;;;;;;;6.68;2.50;;;13.40;99.90;;;;;;4084852;29;20171;-92
2021/03/26 10:17:30;;;;;;;6.75;2.10;;;13.20;99.90;;;;;;4071527;29;20184;-91
2021/03/26 10:19:46;;;;;;;6.20;1.73;;;13.40;99.90;;;;;;4086085;29;20628;-93
2021/03/26 10:21:55;;;;;;;10.13;1.98;;;13.30;99.90;;;;;;4086037;29;20528;-92
2021/03/26 10:24:12;;;;;;;5.10;1.63;;;13.40;99.90;;;;;;4085971;29;20183;-91
2021/03/26 10:26:34;;;;;;;8.30;2.27;;;13.30;99.90;;;;;;4087651;29;20208;-92
2021/03/26 10:28:44;;;;;;;7.67;1.23;;;13.50;99.90;;;;;;4092390;29;20172;-91
2021/03/26 10:30:51;;;;;;;6.80;1.33;;;13.40;99.90;;;;;;4090637;29;20206;-92
2021/03/26 10:32:52;;;;;;;4.45;1.10;;;13.30;99.90;;;;;;4086045;29;20270;-93
2021/03/26 10:34:57;;;;;;;3.37;0.93;;;13.10;99.90;;;;;;4069745;29;20172;-92
2021/03/26 10:37:27;;;;;;;3.57;1.13;;;13.20;99.90;;;;;;4085244;29;20183;-92
2021/03/26 10:39:45;;;;;;;1.97;0.90;;;13.10;99.90;;;;;;4084388;29;20222;-92
2021/03/26 10:42:20;;;;;;;6.72;1.25;;;13.20;99.90;;;;;;4068816;29;20216;-93
2021/03/26 10:44:29;;;;;;;5.20;1.10;;;13.20;99.90;;;;;;4068308;29;20708;-95
2021/03/26 10:46:36;;;;;;;8.20;1.50;;;13.30;99.90;;;;;;4100305;29;20182;-92
2021/03/26 10:48:57;;;;;;;5.03;1.30;;;13.20;99.90;;;;;;4084076;29;20559;-92
2021/03/26 10:51:31;;;;;;;5.37;1.10;;;13.30;99.90;;;;;;4068371;29;20265;-91
2021/03/26 10:53:38;;;;;;;6.10;1.77;;;13.40;99.90;;;;;;4068351;29;20180;-93
2021/03/26 10:55:50;;;;;;;4.35;1.25;;;13.60;99.90;;;;;;4068190;29;20191;-93
2021/03/26 10:58:45;;;;;;;3.00;1.10;;;13.70;99.90;;;;;;4068448;29;20319;-92
2021/03/26 11:00:57;;;;;;;4.55;1.30;;;13.60;99.90;;;;;;4030147;29;20206;-92
2021/03/26 11:03:06;;;;;;;9.02;1.50;;;13.80;99.90;;;;;;4037275;29;20189;-91
2021/03/26 11:05:24;;;;;;;6.55;1.33;;;14.00;99.90;;;;;;4040969;29;20199;-92
2021/03/26 11:07:29;;;;;;;6.05;1.38;;;13.90;99.90;;;;;;4083573;29;20186;-91
2021/03/26 11:09:47;;;;;;;6.07;1.80;;;13.90;99.90;;;;;;4069127;29;20226;-95
2021/03/26 11:12:06;;;;;;;3.17;1.03;;;14.00;99.90;;;;;;4068619;29;20290;-93
2021/03/26 11:14:18;;;;;;;4.30;0.95;;;13.80;99.90;;;;;;4068130;29;20181;-92
2021/03/26 11:16:22;;;;;;;2.58;0.70;;;13.50;99.90;;;;;;4068670;29;20169;-91
2021/03/26 11:18:30;;;;;;;2.58;1.15;;;13.50;99.90;;;;;;4056571;29;20241;-90
2021/03/26 11:20:59;;;;;;;5.43;0.90;;;13.50;99.90;;;;;;4082142;29;20206;-92
2021/03/26 11:23:12;;;;;;;2.60;0.67;;;13.50;99.90;;;;;;4094736;29;20195;-94
2021/03/26 11:25:25;;;;;;;6.88;1.52;;;13.30;99.90;;;;;;4084509;29;20194;-91
2021/03/26 11:27:37;;;;;;;6.55;0.93;;;13.50;99.90;;;;;;4084846;29;20164;-92
2021/03/26 11:29:41;;;;;;;2.08;0.63;;;13.30;99.90;;;;;;4084735;29;20175;-95
2021/03/26 11:32:36;;;;;;;3.70;0.90;;;13.00;99.90;;;;;;4087003;29;20195;-92
2021/03/26 11:34:56;;;;;;;4.80;0.90;;;13.00;99.90;;;;;;4055670;29;20298;-95
2021/03/26 11:37:23;;;;;;;3.10;0.70;;;12.70;99.90;;;;;;4077565;29;20375;-92
2021/03/26 11:39:38;;;;;;;13.33;0.97;;;12.80;99.90;;;;;;4088558;29;20171;-90
2021/03/26 11:41:58;;;;;;;3.30;0.80;;;13.10;99.90;;;;;;4103571;28;20266;-93
2021/03/26 11:44:03;;;;;;;4.00;1.00;;;13.00;99.90;;;;;;4087889;29;20180;-96
2021/03/26 11:46:22;;;;;;;2.13;0.80;;;13.10;99.90;;;;;;4091128;29;20182;-94
2021/03/26 11:48:44;;;;;;;4.10;0.87;;;13.10;99.90;;;;;;4086380;29;20194;-93
2021/03/26 11:50:51;;;;;;;3.17;0.70;;;13.10;99.90;;;;;;4102678;29;20258;-93